Airport View

Enter AWOS ICAO identifier for current METAR.

ex. KFNL

KPIT 250251Z 32007KT 10SM FEW040 FEW100 SCT250 20/17 A3000 RMK AO2 SLP160 T02000172 51020

25 Jun 2018 03:52

Phone: 412-472-0145

Other Area AWOS: 42PN - KAGC - KBVI - KBTP

TAF AMD KPIT 250305Z 2503/2606 32007KT P6SM SCT250 FM250500 33006KT P6SM BKN015 FM250800 33006KT P6SM SCT015 FM251400 35005KT P6SM SCT250